sensor_id;sensor_type;location;lat;lon;timestamp;P1;P2;P0
76049;PMS7003;64967;50.234;19.224;2022-12-07T00:01:24;0.75;0.25;0.00
76049;PMS7003;64967;50.234;19.224;2022-12-07T00:03:54;1.00;0.50;0.00
76049;PMS7003;64967;50.234;19.224;2022-12-07T00:06:35;0.00;0.00;0.00
76049;PMS7003;64967;50.234;19.224;2022-12-07T00:09:04;0.00;0.00;0.00
76049;PMS7003;64967;50.234;19.224;2022-12-07T00:11:32;0.00;0.00;0.00
76049;PMS7003;64967;50.234;19.224;2022-12-07T00:14:00;2.00;0.00;0.00
76049;PMS7003;64967;50.234;19.224;2022-12-07T00:16:30;0.00;0.00;0.00
76049;PMS7003;64967;50.234;19.224;2022-12-07T00:18:59;0.00;0.00;0.00
76049;PMS7003;64967;50.234;19.224;2022-12-07T00:21:27;0.00;0.00;0.00
76049;PMS7003;64967;50.234;19.224;2022-12-07T00:23:56;1.00;0.00;0.00
76049;PMS7003;64967;50.234;19.224;2022-12-07T00:26:28;1.00;0.00;0.00
76049;PMS7003;64967;50.234;19.224;2022-12-07T00:28:58;0.50;0.00;0.00
76049;PMS7003;64967;50.234;19.224;2022-12-07T00:31:28;0.00;0.00;0.00
76049;PMS7003;64967;50.234;19.224;2022-12-07T00:33:57;0.00;0.00;0.00
76049;PMS7003;64967;50.234;19.224;2022-12-07T00:36:25;0.75;0.75;0.00
76049;PMS7003;64967;50.234;19.224;2022-12-07T00:38:57;0.00;0.00;0.00
76049;PMS7003;64967;50.234;19.224;2022-12-07T00:41:26;0.00;0.00;0.00
76049;PMS7003;64967;50.234;19.224;2022-12-07T00:43:54;0.00;0.00;0.00
76049;PMS7003;64967;50.234;19.224;2022-12-07T00:46:21;0.00;0.00;0.00
76049;PMS7003;64967;50.234;19.224;2022-12-07T00:48:50;0.00;0.00;0.00
76049;PMS7003;64967;50.234;19.224;2022-12-07T00:51:19;0.00;0.00;0.00
76049;PMS7003;64967;50.234;19.224;2022-12-07T00:53:47;0.50;0.00;0.00
76049;PMS7003;64967;50.234;19.224;2022-12-07T00:56:16;0.00;0.00;0.00
76049;PMS7003;64967;50.234;19.224;2022-12-07T00:58:55;0.00;0.00;0.00
76049;PMS7003;64967;50.234;19.224;2022-12-07T01:01:25;0.50;0.00;0.00
76049;PMS7003;64967;50.234;19.224;2022-12-07T01:03:54;0.00;0.00;0.00
76049;PMS7003;64967;50.234;19.224;2022-12-07T01:06:21;0.00;0.00;0.00
76049;PMS7003;64967;50.234;19.224;2022-12-07T01:08:49;0.00;0.00;0.00
76049;PMS7003;64967;50.234;19.224;2022-12-07T01:11:18;0.00;0.00;0.00
76049;PMS7003;64967;50.234;19.224;2022-12-07T01:13:47;0.00;0.00;0.00
76049;PMS7003;64967;50.234;19.224;2022-12-07T01:16:16;0.00;0.00;0.00
76049;PMS7003;64967;50.234;19.224;2022-12-07T01:18:48;0.00;0.00;0.00
76049;PMS7003;64967;50.234;19.224;2022-12-07T01:21:18;0.00;0.00;0.00
76049;PMS7003;64967;50.234;19.224;2022-12-07T01:23:49;0.00;0.00;0.00
76049;PMS7003;64967;50.234;19.224;2022-12-07T01:26:18;0.00;0.00;0.00
76049;PMS7003;64967;50.234;19.224;2022-12-07T01:28:47;0.00;0.00;0.00
76049;PMS7003;64967;50.234;19.224;2022-12-07T01:31:16;0.00;0.00;0.00
76049;PMS7003;64967;50.234;19.224;2022-12-07T01:33:46;0.00;0.00;0.00
76049;PMS7003;64967;50.234;19.224;2022-12-07T01:36:16;0.00;0.00;0.00
76049;PMS7003;64967;50.234;19.224;2022-12-07T01:38:48;0.00;0.00;0.00
76049;PMS7003;64967;50.234;19.224;2022-12-07T01:41:20;0.00;0.00;0.00
76049;PMS7003;64967;50.234;19.224;2022-12-07T01:46:33;0.00;0.00;0.00
76049;PMS7003;64967;50.234;19.224;2022-12-07T01:49:00;0.00;0.00;0.00
76049;PMS7003;64967;50.234;19.224;2022-12-07T01:51:28;0.00;0.00;0.00
76049;PMS7003;64967;50.234;19.224;2022-12-07T01:53:56;0.50;0.00;0.00
76049;PMS7003;64967;50.234;19.224;2022-12-07T01:56:24;1.00;0.00;0.00
76049;PMS7003;64967;50.234;19.224;2022-12-07T01:58:53;0.00;0.00;0.00
76049;PMS7003;64967;50.234;19.224;2022-12-07T02:01:23;0.00;0.00;0.00
76049;PMS7003;64967;50.234;19.224;2022-12-07T02:03:50;0.00;0.00;0.00
76049;PMS7003;64967;50.234;19.224;2022-12-07T02:06:19;0.00;0.00;0.00
76049;PMS7003;64967;50.234;19.224;2022-12-07T02:08:50;0.50;0.00;0.00
76049;PMS7003;64967;50.234;19.224;2022-12-07T02:11:36;0.00;0.00;0.00
76049;PMS7003;64967;50.234;19.224;2022-12-07T02:14:20;0.00;0.00;0.00
76049;PMS7003;64967;50.234;19.224;2022-12-07T02:20:29;0.25;0.00;0.00
76049;PMS7003;64967;50.234;19.224;2022-12-07T02:23:40;0.00;0.00;0.00
76049;PMS7003;64967;50.234;19.224;2022-12-07T02:29:45;0.00;0.00;0.00
76049;PMS7003;64967;50.234;19.224;2022-12-07T02:38:31;0.00;0.00;0.00
76049;PMS7003;64967;50.234;19.224;2022-12-07T02:43:54;0.75;0.00;0.00
76049;PMS7003;64967;50.234;19.224;2022-12-07T02:46:38;0.00;0.00;0.00
76049;PMS7003;64967;50.234;19.224;2022-12-07T02:49:08;2.00;1.00;1.00
76049;PMS7003;64967;50.234;19.224;2022-12-07T02:51:44;0.00;0.00;0.00
76049;PMS7003;64967;50.234;19.224;2022-12-07T02:54:16;0.00;0.00;0.00
76049;PMS7003;64967;50.234;19.224;2022-12-07T02:56:48;0.00;0.00;0.00
76049;PMS7003;64967;50.234;19.224;2022-12-07T03:16:15;4.00;2.00;1.75
76049;PMS7003;64967;50.234;19.224;2022-12-07T03:21:40;2.00;2.00;1.00
76049;PMS7003;64967;50.234;19.224;2022-12-07T03:24:13;0.00;0.00;0.00
76049;PMS7003;64967;50.234;19.224;2022-12-07T03:26:55;0.00;0.00;0.00
76049;PMS7003;64967;50.234;19.224;2022-12-07T03:29:34;2.00;2.00;1.50
76049;PMS7003;64967;50.234;19.224;2022-12-07T03:32:25;1.50;1.50;1.00
76049;PMS7003;64967;50.234;19.224;2022-12-07T03:35:22;1.75;1.00;1.00
76049;PMS7003;64967;50.234;19.224;2022-12-07T03:38:08;0.50;0.50;0.50
76049;PMS7003;64967;50.234;19.224;2022-12-07T03:41:02;1.00;1.00;1.00
76049;PMS7003;64967;50.234;19.224;2022-12-07T03:43:34;2.25;2.00;2.00
76049;PMS7003;64967;50.234;19.224;2022-12-07T03:48:59;0.00;0.00;0.00
76049;PMS7003;64967;50.234;19.224;2022-12-07T03:54:05;0.50;0.50;0.00
76049;PMS7003;64967;50.234;19.224;2022-12-07T03:56:42;2.25;1.00;0.50
76049;PMS7003;64967;50.234;19.224;2022-12-07T03:59:11;3.00;1.50;1.00
76049;PMS7003;64967;50.234;19.224;2022-12-07T04:01:41;1.00;0.75;0.00
76049;PMS7003;64967;50.234;19.224;2022-12-07T04:04:10;2.00;1.50;1.00
76049;PMS7003;64967;50.234;19.224;2022-12-07T04:06:37;4.25;2.00;1.00
76049;PMS7003;64967;50.234;19.224;2022-12-07T04:09:04;3.25;3.25;2.00
76049;PMS7003;64967;50.234;19.224;2022-12-07T04:11:31;1.75;1.25;1.00
76049;PMS7003;64967;50.234;19.224;2022-12-07T04:13:58;3.25;1.00;1.00
76049;PMS7003;64967;50.234;19.224;2022-12-07T04:16:44;6.50;6.00;5.00
76049;PMS7003;64967;50.234;19.224;2022-12-07T04:19:20;4.00;3.25;2.00
76049;PMS7003;64967;50.234;19.224;2022-12-07T04:21:49;2.25;2.00;1.00
76049;PMS7003;64967;50.234;19.224;2022-12-07T04:24:16;4.00;2.00;1.00
76049;PMS7003;64967;50.234;19.224;2022-12-07T04:26:44;2.00;1.00;1.00
76049;PMS7003;64967;50.234;19.224;2022-12-07T04:29:11;0.50;0.50;0.00
76049;PMS7003;64967;50.234;19.224;2022-12-07T04:31:40;1.00;0.00;0.00
76049;PMS7003;64967;50.234;19.224;2022-12-07T04:34:07;1.00;0.00;0.00
76049;PMS7003;64967;50.234;19.224;2022-12-07T04:36:35;0.00;0.00;0.00
76049;PMS7003;64967;50.234;19.224;2022-12-07T04:39:02;0.00;0.00;0.00
76049;PMS7003;64967;50.234;19.224;2022-12-07T04:41:30;0.00;0.00;0.00
76049;PMS7003;64967;50.234;19.224;2022-12-07T04:44:02;0.00;0.00;0.00
76049;PMS7003;64967;50.234;19.224;2022-12-07T04:46:31;0.00;0.00;0.00
76049;PMS7003;64967;50.234;19.224;2022-12-07T04:48:58;0.00;0.00;0.00
76049;PMS7003;64967;50.234;19.224;2022-12-07T04:51:26;0.00;0.00;0.00
76049;PMS7003;64967;50.234;19.224;2022-12-07T04:53:55;0.00;0.00;0.00
76049;PMS7003;64967;50.234;19.224;2022-12-07T04:56:23;0.00;0.00;0.00
76049;PMS7003;64967;50.234;19.224;2022-12-07T04:58:51;0.00;0.00;0.00
76049;PMS7003;64967;50.234;19.224;2022-12-07T05:01:20;0.75;0.00;0.00
76049;PMS7003;64967;50.234;19.224;2022-12-07T05:03:49;0.00;0.00;0.00
76049;PMS7003;64967;50.234;19.224;2022-12-07T05:06:16;0.00;0.00;0.00
76049;PMS7003;64967;50.234;19.224;2022-12-07T05:08:43;0.00;0.00;0.00
76049;PMS7003;64967;50.234;19.224;2022-12-07T05:11:10;0.00;0.00;0.00
76049;PMS7003;64967;50.234;19.224;2022-12-07T05:14:01;0.00;0.00;0.00
76049;PMS7003;64967;50.234;19.224;2022-12-07T05:16:29;0.00;0.00;0.00
76049;PMS7003;64967;50.234;19.224;2022-12-07T05:18:57;0.25;0.00;0.00
76049;PMS7003;64967;50.234;19.224;2022-12-07T05:21:24;0.00;0.00;0.00
76049;PMS7003;64967;50.234;19.224;2022-12-07T05:23:51;0.00;0.00;0.00
76049;PMS7003;64967;50.234;19.224;2022-12-07T05:26:18;0.00;0.00;0.00
76049;PMS7003;64967;50.234;19.224;2022-12-07T05:28:49;2.00;2.00;1.75
76049;PMS7003;64967;50.234;19.224;2022-12-07T05:31:17;1.00;1.00;0.00
76049;PMS7003;64967;50.234;19.224;2022-12-07T05:33:44;0.50;0.50;0.00
76049;PMS7003;64967;50.234;19.224;2022-12-07T05:36:11;1.00;0.00;0.00
76049;PMS7003;64967;50.234;19.224;2022-12-07T05:38:38;1.00;0.00;0.00
76049;PMS7003;64967;50.234;19.224;2022-12-07T05:41:05;1.00;1.00;1.00
76049;PMS7003;64967;50.234;19.224;2022-12-07T05:43:33;0.00;0.00;0.00
76049;PMS7003;64967;50.234;19.224;2022-12-07T05:46:00;0.50;0.50;0.25
76049;PMS7003;64967;50.234;19.224;2022-12-07T05:48:27;1.00;1.00;0.50
76049;PMS7003;64967;50.234;19.224;2022-12-07T05:50:54;0.75;0.00;0.00
76049;PMS7003;64967;50.234;19.224;2022-12-07T05:53:21;1.75;1.00;0.00
76049;PMS7003;64967;50.234;19.224;2022-12-07T05:55:48;0.00;0.00;0.00
76049;PMS7003;64967;50.234;19.224;2022-12-07T05:58:15;4.00;1.75;1.00
76049;PMS7003;64967;50.234;19.224;2022-12-07T06:01:01;7.00;4.50;4.00
76049;PMS7003;64967;50.234;19.224;2022-12-07T06:03:28;2.00;2.00;1.75
76049;PMS7003;64967;50.234;19.224;2022-12-07T06:05:55;5.00;2.00;1.75
76049;PMS7003;64967;50.234;19.224;2022-12-07T06:08:22;3.00;3.00;1.50
76049;PMS7003;64967;50.234;19.224;2022-12-07T06:10:49;7.75;4.50;4.00
76049;PMS7003;64967;50.234;19.224;2022-12-07T06:13:38;8.75;6.00;5.00
76049;PMS7003;64967;50.234;19.224;2022-12-07T06:16:12;11.33;9.00;8.00
76049;PMS7003;64967;50.234;19.224;2022-12-07T06:18:39;7.00;5.50;5.00
76049;PMS7003;64967;50.234;19.224;2022-12-07T06:21:06;11.00;6.00;5.00
76049;PMS7003;64967;50.234;19.224;2022-12-07T06:23:33;4.75;4.75;3.00
76049;PMS7003;64967;50.234;19.224;2022-12-07T06:26:00;3.50;3.50;2.00
76049;PMS7003;64967;50.234;19.224;2022-12-07T06:28:27;2.00;1.00;1.00
76049;PMS7003;64967;50.234;19.224;2022-12-07T06:30:57;2.00;1.75;1.00
76049;PMS7003;64967;50.234;19.224;2022-12-07T06:33:25;5.00;4.00;3.50
76049;PMS7003;64967;50.234;19.224;2022-12-07T06:35:53;8.50;7.25;4.50
76049;PMS7003;64967;50.234;19.224;2022-12-07T06:38:20;6.00;5.00;2.50
76049;PMS7003;64967;50.234;19.224;2022-12-07T06:40:48;15.50;10.00;8.00
76049;PMS7003;64967;50.234;19.224;2022-12-07T06:43:15;12.75;9.50;8.00
76049;PMS7003;64967;50.234;19.224;2022-12-07T06:45:42;9.25;8.75;5.00
76049;PMS7003;64967;50.234;19.224;2022-12-07T06:48:09;7.00;7.00;5.50
76049;PMS7003;64967;50.234;19.224;2022-12-07T06:50:37;4.75;4.00;1.00
76049;PMS7003;64967;50.234;19.224;2022-12-07T06:53:04;5.00;2.75;1.00
76049;PMS7003;64967;50.234;19.224;2022-12-07T06:55:31;4.25;4.00;4.00
76049;PMS7003;64967;50.234;19.224;2022-12-07T06:57:57;5.75;5.25;4.25
76049;PMS7003;64967;50.234;19.224;2022-12-07T07:00:25;4.25;4.25;2.00
76049;PMS7003;64967;50.234;19.224;2022-12-07T07:02:51;6.00;5.00;4.00
76049;PMS7003;64967;50.234;19.224;2022-12-07T07:05:19;5.75;5.00;4.00
76049;PMS7003;64967;50.234;19.224;2022-12-07T07:07:48;9.00;7.25;5.75
76049;PMS7003;64967;50.234;19.224;2022-12-07T07:10:36;15.25;11.25;8.50
76049;PMS7003;64967;50.234;19.224;2022-12-07T07:13:03;12.00;10.00;6.00
76049;PMS7003;64967;50.234;19.224;2022-12-07T07:15:31;11.75;8.00;5.75
76049;PMS7003;64967;50.234;19.224;2022-12-07T07:17:58;5.50;5.00;4.00
76049;PMS7003;64967;50.234;19.224;2022-12-07T07:20:33;5.25;5.00;3.75
76049;PMS7003;64967;50.234;19.224;2022-12-07T07:23:00;5.00;4.75;3.00
76049;PMS7003;64967;50.234;19.224;2022-12-07T07:25:27;8.00;6.00;4.00
76049;PMS7003;64967;50.234;19.224;2022-12-07T07:27:54;14.50;11.50;8.00
76049;PMS7003;64967;50.234;19.224;2022-12-07T07:30:22;12.25;9.50;6.50
76049;PMS7003;64967;50.234;19.224;2022-12-07T07:32:49;7.75;6.25;6.00
76049;PMS7003;64967;50.234;19.224;2022-12-07T07:35:16;6.00;6.00;4.00
76049;PMS7003;64967;50.234;19.224;2022-12-07T07:37:43;10.00;8.50;5.00
76049;PMS7003;64967;50.234;19.224;2022-12-07T07:40:10;5.50;4.25;3.00
76049;PMS7003;64967;50.234;19.224;2022-12-07T07:42:39;10.00;7.00;5.50
76049;PMS7003;64967;50.234;19.224;2022-12-07T07:45:06;6.00;6.00;4.50
76049;PMS7003;64967;50.234;19.224;2022-12-07T07:47:34;11.00;9.00;4.50
76049;PMS7003;64967;50.234;19.224;2022-12-07T07:50:01;14.00;11.25;9.50
76049;PMS7003;64967;50.234;19.224;2022-12-07T07:52:30;9.00;7.50;5.25
76049;PMS7003;64967;50.234;19.224;2022-12-07T07:54:57;10.50;8.25;5.00
76049;PMS7003;64967;50.234;19.224;2022-12-07T07:57:24;12.25;9.25;8.00
76049;PMS7003;64967;50.234;19.224;2022-12-07T07:59:51;9.75;8.25;5.50
76049;PMS7003;64967;50.234;19.224;2022-12-07T08:02:19;8.75;6.00;4.00
76049;PMS7003;64967;50.234;19.224;2022-12-07T08:04:47;5.25;5.00;4.00
76049;PMS7003;64967;50.234;19.224;2022-12-07T08:07:14;7.00;6.00;3.25
76049;PMS7003;64967;50.234;19.224;2022-12-07T08:09:41;0.75;0.00;0.00
76049;PMS7003;64967;50.234;19.224;2022-12-07T08:12:08;7.75;6.00;4.00
76049;PMS7003;64967;50.234;19.224;2022-12-07T08:14:35;9.00;8.75;6.00
76049;PMS7003;64967;50.234;19.224;2022-12-07T08:17:02;8.00;8.00;6.00
76049;PMS7003;64967;50.234;19.224;2022-12-07T08:19:29;14.75;9.75;6.00
76049;PMS7003;64967;50.234;19.224;2022-12-07T08:21:56;10.00;8.00;6.00
76049;PMS7003;64967;50.234;19.224;2022-12-07T08:24:23;8.25;6.00;5.00
76049;PMS7003;64967;50.234;19.224;2022-12-07T08:26:51;8.25;5.75;5.00
76049;PMS7003;64967;50.234;19.224;2022-12-07T08:29:18;5.25;4.50;2.25
76049;PMS7003;64967;50.234;19.224;2022-12-07T08:31:46;3.25;1.75;1.25
76049;PMS7003;64967;50.234;19.224;2022-12-07T08:34:13;7.25;7.25;5.00
76049;PMS7003;64967;50.234;19.224;2022-12-07T08:36:40;14.75;9.25;6.00
76049;PMS7003;64967;50.234;19.224;2022-12-07T08:39:07;7.75;6.50;3.25
76049;PMS7003;64967;50.234;19.224;2022-12-07T08:41:54;13.25;11.00;9.00
76049;PMS7003;64967;50.234;19.224;2022-12-07T08:44:21;9.75;7.50;6.00
76049;PMS7003;64967;50.234;19.224;2022-12-07T08:46:50;9.25;6.50;5.00
76049;PMS7003;64967;50.234;19.224;2022-12-07T08:49:31;11.25;8.75;6.25
76049;PMS7003;64967;50.234;19.224;2022-12-07T08:52:02;8.50;5.00;3.00
76049;PMS7003;64967;50.234;19.224;2022-12-07T08:54:32;11.25;8.00;6.00
76049;PMS7003;64967;50.234;19.224;2022-12-07T08:57:02;13.00;11.50;8.75
76049;PMS7003;64967;50.234;19.224;2022-12-07T08:59:29;16.25;13.75;9.25
76049;PMS7003;64967;50.234;19.224;2022-12-07T09:01:57;14.25;11.00;8.50
76049;PMS7003;64967;50.234;19.224;2022-12-07T09:04:24;8.75;8.75;6.00
76049;PMS7003;64967;50.234;19.224;2022-12-07T09:06:51;9.00;6.00;5.00
76049;PMS7003;64967;50.234;19.224;2022-12-07T09:09:20;11.75;6.50;4.75
76049;PMS7003;64967;50.234;19.224;2022-12-07T09:11:47;6.75;5.50;4.50
76049;PMS7003;64967;50.234;19.224;2022-12-07T09:14:14;7.50;5.25;3.00
76049;PMS7003;64967;50.234;19.224;2022-12-07T09:16:41;6.50;6.00;3.00
76049;PMS7003;64967;50.234;19.224;2022-12-07T09:19:08;4.00;2.50;2.00
76049;PMS7003;64967;50.234;19.224;2022-12-07T09:21:35;14.50;10.00;5.50
76049;PMS7003;64967;50.234;19.224;2022-12-07T09:24:02;6.50;5.75;5.00
76049;PMS7003;64967;50.234;19.224;2022-12-07T09:26:29;5.50;4.50;2.50
76049;PMS7003;64967;50.234;19.224;2022-12-07T09:28:56;7.00;5.00;3.25
76049;PMS7003;64967;50.234;19.224;2022-12-07T09:31:23;4.50;4.00;3.00
76049;PMS7003;64967;50.234;19.224;2022-12-07T09:33:55;2.00;2.00;2.00
76049;PMS7003;64967;50.234;19.224;2022-12-07T09:36:28;1.00;1.00;1.00
76049;PMS7003;64967;50.234;19.224;2022-12-07T09:38:55;2.00;1.50;1.00
76049;PMS7003;64967;50.234;19.224;2022-12-07T09:41:23;1.25;1.00;0.75
76049;PMS7003;64967;50.234;19.224;2022-12-07T09:43:52;2.75;2.00;1.00
76049;PMS7003;64967;50.234;19.224;2022-12-07T09:46:24;1.00;1.00;1.00
76049;PMS7003;64967;50.234;19.224;2022-12-07T09:48:52;1.25;1.00;1.00
76049;PMS7003;64967;50.234;19.224;2022-12-07T09:51:20;1.00;1.00;1.00
76049;PMS7003;64967;50.234;19.224;2022-12-07T09:53:51;2.75;1.50;1.00
76049;PMS7003;64967;50.234;19.224;2022-12-07T09:56:20;1.00;1.00;1.00
76049;PMS7003;64967;50.234;19.224;2022-12-07T09:58:49;3.00;1.75;1.00
76049;PMS7003;64967;50.234;19.224;2022-12-07T10:01:19;0.75;0.75;0.75
76049;PMS7003;64967;50.234;19.224;2022-12-07T10:04:09;2.00;2.00;2.00
76049;PMS7003;64967;50.234;19.224;2022-12-07T10:06:41;2.00;1.25;1.00
76049;PMS7003;64967;50.234;19.224;2022-12-07T10:09:09;1.00;1.00;1.00
76049;PMS7003;64967;50.234;19.224;2022-12-07T10:14:33;1.50;1.00;0.50
76049;PMS7003;64967;50.234;19.224;2022-12-07T10:17:33;1.25;1.00;0.25
76049;PMS7003;64967;50.234;19.224;2022-12-07T10:20:13;2.00;0.00;0.00
76049;PMS7003;64967;50.234;19.224;2022-12-07T10:25:26;1.50;1.00;0.75
76049;PMS7003;64967;50.234;19.224;2022-12-07T10:28:02;1.25;1.00;1.00
76049;PMS7003;64967;50.234;19.224;2022-12-07T10:33:33;1.00;1.00;0.00
76049;PMS7003;64967;50.234;19.224;2022-12-07T10:38:53;2.25;2.25;2.00
76049;PMS7003;64967;50.234;19.224;2022-12-07T10:41:28;2.50;1.00;1.00
76049;PMS7003;64967;50.234;19.224;2022-12-07T10:43:56;1.00;1.00;0.00
76049;PMS7003;64967;50.234;19.224;2022-12-07T10:54:48;0.75;0.75;0.00
76049;PMS7003;64967;50.234;19.224;2022-12-07T11:05:27;3.00;1.75;1.00
76049;PMS7003;64967;50.234;19.224;2022-12-07T11:08:09;2.75;1.00;1.00
76049;PMS7003;64967;50.234;19.224;2022-12-07T11:13:24;4.00;2.00;1.75
76049;PMS7003;64967;50.234;19.224;2022-12-07T11:15:59;5.50;5.00;3.00
76049;PMS7003;64967;50.234;19.224;2022-12-07T11:24:11;3.00;3.00;2.00
76049;PMS7003;64967;50.234;19.224;2022-12-07T11:30:00;2.00;2.00;1.50
76049;PMS7003;64967;50.234;19.224;2022-12-07T11:38:14;5.00;5.00;3.00
76049;PMS7003;64967;50.234;19.224;2022-12-07T11:40:48;2.50;2.25;2.00
76049;PMS7003;64967;50.234;19.224;2022-12-07T11:48:48;2.00;1.00;1.00
76049;PMS7003;64967;50.234;19.224;2022-12-07T11:51:24;2.75;2.50;1.50
76049;PMS7003;64967;50.234;19.224;2022-12-07T11:54:00;1.00;1.00;1.00
76049;PMS7003;64967;50.234;19.224;2022-12-07T11:56:31;1.00;1.00;1.00
76049;PMS7003;64967;50.234;19.224;2022-12-07T11:59:06;1.50;1.50;1.25
76049;PMS7003;64967;50.234;19.224;2022-12-07T12:01:53;1.00;1.00;1.00
76049;PMS7003;64967;50.234;19.224;2022-12-07T12:04:24;6.00;2.00;1.25
76049;PMS7003;64967;50.234;19.224;2022-12-07T12:07:15;5.00;3.00;2.00
76049;PMS7003;64967;50.234;19.224;2022-12-07T12:10:15;3.00;2.50;2.00
76049;PMS7003;64967;50.234;19.224;2022-12-07T12:13:29;5.00;5.00;3.00
76049;PMS7003;64967;50.234;19.224;2022-12-07T12:22:10;3.25;2.50;2.00
76049;PMS7003;64967;50.234;19.224;2022-12-07T12:24:48;4.00;3.00;2.25
76049;PMS7003;64967;50.234;19.224;2022-12-07T12:27:37;2.00;2.00;1.25
76049;PMS7003;64967;50.234;19.224;2022-12-07T12:30:07;1.75;1.75;1.00
76049;PMS7003;64967;50.234;19.224;2022-12-07T12:33:12;2.00;2.00;2.00
76049;PMS7003;64967;50.234;19.224;2022-12-07T12:35:43;4.50;3.00;2.00
76049;PMS7003;64967;50.234;19.224;2022-12-07T12:38:32;5.00;3.00;2.00
76049;PMS7003;64967;50.234;19.224;2022-12-07T12:49:30;1.50;1.50;1.00
76049;PMS7003;64967;50.234;19.224;2022-12-07T12:54:57;2.50;2.50;2.00
76049;PMS7003;64967;50.234;19.224;2022-12-07T12:57:29;2.50;2.00;1.00
76049;PMS7003;64967;50.234;19.224;2022-12-07T13:00:19;2.00;2.00;1.75
76049;PMS7003;64967;50.234;19.224;2022-12-07T13:02:50;1.75;1.00;1.00
76049;PMS7003;64967;50.234;19.224;2022-12-07T13:10:38;0.50;0.50;0.50
76049;PMS7003;64967;50.234;19.224;2022-12-07T13:15:44;0.00;0.00;0.00
76049;PMS7003;64967;50.234;19.224;2022-12-07T13:23:38;1.00;0.25;0.00
76049;PMS7003;64967;50.234;19.224;2022-12-07T13:31:39;0.75;0.75;0.75
76049;PMS7003;64967;50.234;19.224;2022-12-07T13:37:10;0.75;0.75;0.75
76049;PMS7003;64967;50.234;19.224;2022-12-07T13:39:46;1.00;0.50;0.50
76049;PMS7003;64967;50.234;19.224;2022-12-07T13:42:18;3.00;1.50;1.50
76049;PMS7003;64967;50.234;19.224;2022-12-07T13:44:51;1.75;1.00;1.00
76049;PMS7003;64967;50.234;19.224;2022-12-07T13:47:39;1.25;1.00;1.00
76049;PMS7003;64967;50.234;19.224;2022-12-07T13:50:23;1.50;1.50;1.25
76049;PMS7003;64967;50.234;19.224;2022-12-07T13:52:57;2.00;2.00;2.00
76049;PMS7003;64967;50.234;19.224;2022-12-07T13:55:26;3.50;2.00;1.00
76049;PMS7003;64967;50.234;19.224;2022-12-07T13:57:55;1.50;0.00;0.00
76049;PMS7003;64967;50.234;19.224;2022-12-07T14:00:23;2.75;1.00;1.00
76049;PMS7003;64967;50.234;19.224;2022-12-07T14:02:59;1.75;1.25;1.00
76049;PMS7003;64967;50.234;19.224;2022-12-07T14:05:30;2.50;2.00;1.75
76049;PMS7003;64967;50.234;19.224;2022-12-07T14:10:29;1.00;1.00;1.00
76049;PMS7003;64967;50.234;19.224;2022-12-07T14:13:00;1.50;1.25;1.00
76049;PMS7003;64967;50.234;19.224;2022-12-07T14:15:32;1.50;1.00;1.00
76049;PMS7003;64967;50.234;19.224;2022-12-07T14:18:02;1.00;1.00;1.00
76049;PMS7003;64967;50.234;19.224;2022-12-07T14:23:04;1.50;1.00;1.00
76049;PMS7003;64967;50.234;19.224;2022-12-07T14:25:45;1.00;1.00;1.00
76049;PMS7003;64967;50.234;19.224;2022-12-07T14:28:32;0.00;0.00;0.00
76049;PMS7003;64967;50.234;19.224;2022-12-07T14:31:00;0.25;0.25;0.00
76049;PMS7003;64967;50.234;19.224;2022-12-07T14:33:28;0.75;0.00;0.00
76049;PMS7003;64967;50.234;19.224;2022-12-07T14:35:56;1.00;1.00;1.00
76049;PMS7003;64967;50.234;19.224;2022-12-07T14:38:24;1.00;0.00;0.00
76049;PMS7003;64967;50.234;19.224;2022-12-07T14:40:53;3.50;2.25;2.00
76049;PMS7003;64967;50.234;19.224;2022-12-07T14:43:41;1.00;0.75;0.00
76049;PMS7003;64967;50.234;19.224;2022-12-07T14:46:28;1.25;1.25;1.00
76049;PMS7003;64967;50.234;19.224;2022-12-07T14:48:55;2.00;1.00;1.00
76049;PMS7003;64967;50.234;19.224;2022-12-07T14:51:42;4.50;3.00;2.00
76049;PMS7003;64967;50.234;19.224;2022-12-07T14:54:31;6.75;2.75;2.00
76049;PMS7003;64967;50.234;19.224;2022-12-07T14:56:59;3.00;3.00;2.00
76049;PMS7003;64967;50.234;19.224;2022-12-07T14:59:26;13.00;7.50;5.25
76049;PMS7003;64967;50.234;19.224;2022-12-07T15:01:53;6.25;6.00;5.00
76049;PMS7003;64967;50.234;19.224;2022-12-07T15:04:19;2.50;2.00;2.00
76049;PMS7003;64967;50.234;19.224;2022-12-07T15:06:59;7.00;7.00;5.00
76049;PMS7003;64967;50.234;19.224;2022-12-07T15:09:28;8.75;7.25;5.25
76049;PMS7003;64967;50.234;19.224;2022-12-07T15:11:55;8.75;5.75;2.75
76049;PMS7003;64967;50.234;19.224;2022-12-07T15:14:23;5.00;3.00;2.00
76049;PMS7003;64967;50.234;19.224;2022-12-07T15:16:50;9.00;7.50;6.00
76049;PMS7003;64967;50.234;19.224;2022-12-07T15:19:35;9.25;6.00;4.00
76049;PMS7003;64967;50.234;19.224;2022-12-07T15:22:02;9.00;7.00;5.50
76049;PMS7003;64967;50.234;19.224;2022-12-07T15:24:29;4.00;3.50;2.50
76049;PMS7003;64967;50.234;19.224;2022-12-07T15:26:56;3.00;2.00;1.50
76049;PMS7003;64967;50.234;19.224;2022-12-07T15:29:23;3.50;3.00;1.50
76049;PMS7003;64967;50.234;19.224;2022-12-07T15:31:50;2.75;2.75;2.00
76049;PMS7003;64967;50.234;19.224;2022-12-07T15:34:24;3.00;2.00;1.50
76049;PMS7003;64967;50.234;19.224;2022-12-07T15:36:53;9.50;5.00;3.50
76049;PMS7003;64967;50.234;19.224;2022-12-07T15:39:20;10.00;6.00;3.00
76049;PMS7003;64967;50.234;19.224;2022-12-07T15:41:48;10.50;6.75;5.00
76049;PMS7003;64967;50.234;19.224;2022-12-07T15:44:15;9.00;5.75;5.00
76049;PMS7003;64967;50.234;19.224;2022-12-07T15:47:00;5.00;5.00;3.50
76049;PMS7003;64967;50.234;19.224;2022-12-07T15:49:27;9.50;8.00;5.25
76049;PMS7003;64967;50.234;19.224;2022-12-07T15:51:55;7.25;5.00;3.00
76049;PMS7003;64967;50.234;19.224;2022-12-07T15:54:25;7.00;7.00;5.00
76049;PMS7003;64967;50.234;19.224;2022-12-07T15:56:54;6.50;5.50;4.50
76049;PMS7003;64967;50.234;19.224;2022-12-07T15:59:22;12.75;11.00;7.00
76049;PMS7003;64967;50.234;19.224;2022-12-07T16:01:50;10.75;8.00;6.25
76049;PMS7003;64967;50.234;19.224;2022-12-07T16:04:17;5.00;3.00;3.00
76049;PMS7003;64967;50.234;19.224;2022-12-07T16:06:45;5.75;5.00;3.00
76049;PMS7003;64967;50.234;19.224;2022-12-07T16:09:12;4.50;4.50;3.00
76049;PMS7003;64967;50.234;19.224;2022-12-07T16:11:39;3.00;2.25;2.00
76049;PMS7003;64967;50.234;19.224;2022-12-07T16:14:06;3.00;3.00;2.00
76049;PMS7003;64967;50.234;19.224;2022-12-07T16:16:33;5.00;2.00;2.00
76049;PMS7003;64967;50.234;19.224;2022-12-07T16:19:00;6.50;5.00;3.00
76049;PMS7003;64967;50.234;19.224;2022-12-07T16:21:27;3.50;2.75;2.25
76049;PMS7003;64967;50.234;19.224;2022-12-07T16:23:54;9.25;6.00;4.50
76049;PMS7003;64967;50.234;19.224;2022-12-07T16:26:24;5.75;5.25;3.00
76049;PMS7003;64967;50.234;19.224;2022-12-07T16:28:51;3.50;3.50;3.00
76049;PMS7003;64967;50.234;19.224;2022-12-07T16:31:20;3.50;3.50;2.00
76049;PMS7003;64967;50.234;19.224;2022-12-07T16:33:49;2.75;2.00;1.75
76049;PMS7003;64967;50.234;19.224;2022-12-07T16:36:18;2.00;2.00;1.00
76049;PMS7003;64967;50.234;19.224;2022-12-07T16:39:08;2.00;1.00;1.00
76049;PMS7003;64967;50.234;19.224;2022-12-07T16:41:35;1.25;1.00;0.50
76049;PMS7003;64967;50.234;19.224;2022-12-07T16:44:05;2.00;1.75;1.00
76049;PMS7003;64967;50.234;19.224;2022-12-07T16:46:34;2.00;1.75;1.00
76049;PMS7003;64967;50.234;19.224;2022-12-07T16:49:02;1.00;1.00;0.75
76049;PMS7003;64967;50.234;19.224;2022-12-07T16:51:30;3.00;2.75;2.00